sensor_id;sensor_type;location;lat;lon;timestamp;pressure;altitude;pressure_sealevel;temperature;humidity
39075;BME280;24826;52.070;20.970;2023-02-02T00:02:13;61460.31;;;-147.04;100.00
39075;BME280;24826;52.070;20.970;2023-02-02T00:04:57;61466.25;;;-147.04;100.00
39075;BME280;24826;52.070;20.970;2023-02-02T00:07:42;61434.44;;;-147.04;100.00
39075;BME280;24826;52.070;20.970;2023-02-02T00:10:26;61440.41;;;-147.04;100.00
39075;BME280;24826;52.070;20.970;2023-02-02T00:13:11;61442.41;;;-147.04;100.00
39075;BME280;24826;52.070;20.970;2023-02-02T00:15:56;61474.22;;;-147.04;100.00
39075;BME280;24826;52.070;20.970;2023-02-02T00:18:40;61484.16;;;-147.04;100.00
39075;BME280;24826;52.070;20.970;2023-02-02T00:21:26;61428.47;;;-147.04;100.00
39075;BME280;24826;52.070;20.970;2023-02-02T00:24:12;61448.38;;;-147.04;100.00
39075;BME280;24826;52.070;20.970;2023-02-02T00:26:58;61458.31;;;-147.04;100.00
39075;BME280;24826;52.070;20.970;2023-02-02T00:29:42;61414.56;;;-147.04;100.00
39075;BME280;24826;52.070;20.970;2023-02-02T00:32:27;61428.47;;;-147.04;100.00
39075;BME280;24826;52.070;20.970;2023-02-02T00:35:11;61486.16;;;-147.04;100.00
39075;BME280;24826;52.070;20.970;2023-02-02T00:37:56;61432.47;;;-147.04;100.00
39075;BME280;24826;52.070;20.970;2023-02-02T00:40:40;61464.28;;;-147.04;100.00
39075;BME280;24826;52.070;20.970;2023-02-02T00:43:25;61484.16;;;-147.04;100.00
39075;BME280;24826;52.070;20.970;2023-02-02T00:46:17;61472.22;;;-147.04;100.00
39075;BME280;24826;52.070;20.970;2023-02-02T00:49:01;61472.22;;;-147.04;100.00
39075;BME280;24826;52.070;20.970;2023-02-02T00:51:45;61476.22;;;-147.04;100.00
39075;BME280;24826;52.070;20.970;2023-02-02T00:54:30;61424.50;;;-147.04;100.00
39075;BME280;24826;52.070;20.970;2023-02-02T00:57:14;61502.06;;;-147.04;100.00
39075;BME280;24826;52.070;20.970;2023-02-02T00:59:59;61468.25;;;-147.04;100.00
39075;BME280;24826;52.070;20.970;2023-02-02T01:02:43;61464.28;;;-147.04;100.00
39075;BME280;24826;52.070;20.970;2023-02-02T01:05:29;61444.41;;;-147.04;100.00
39075;BME280;24826;52.070;20.970;2023-02-02T01:08:14;61476.22;;;-147.04;100.00
39075;BME280;24826;52.070;20.970;2023-02-02T01:10:59;61450.34;;;-147.04;100.00
39075;BME280;24826;52.070;20.970;2023-02-02T01:13:43;61484.16;;;-147.04;100.00
39075;BME280;24826;52.070;20.970;2023-02-02T01:16:28;61458.31;;;-147.04;100.00
39075;BME280;24826;52.070;20.970;2023-02-02T01:19:13;61468.25;;;-147.04;100.00
39075;BME280;24826;52.070;20.970;2023-02-02T01:21:58;61480.19;;;-147.04;100.00
39075;BME280;24826;52.070;20.970;2023-02-02T01:24:42;61438.44;;;-147.04;100.00
39075;BME280;24826;52.070;20.970;2023-02-02T01:27:27;61456.31;;;-147.04;100.00
39075;BME280;24826;52.070;20.970;2023-02-02T01:30:11;61452.34;;;-147.04;100.00
39075;BME280;24826;52.070;20.970;2023-02-02T01:32:56;61454.34;;;-147.04;100.00
39075;BME280;24826;52.070;20.970;2023-02-02T01:35:52;61424.50;;;-147.04;100.00
39075;BME280;24826;52.070;20.970;2023-02-02T01:38:36;61472.22;;;-147.04;100.00
39075;BME280;24826;52.070;20.970;2023-02-02T01:41:23;61490.13;;;-147.04;100.00
39075;BME280;24826;52.070;20.970;2023-02-02T01:47:37;61456.31;;;-147.04;100.00
39075;BME280;24826;52.070;20.970;2023-02-02T01:50:32;61442.41;;;-147.04;100.00
39075;BME280;24826;52.070;20.970;2023-02-02T01:53:18;61470.25;;;-147.04;100.00
39075;BME280;24826;52.070;20.970;2023-02-02T01:56:04;61486.16;;;-147.04;100.00
39075;BME280;24826;52.070;20.970;2023-02-02T01:58:50;61464.28;;;-147.04;100.00
39075;BME280;24826;52.070;20.970;2023-02-02T02:01:34;61436.44;;;-147.04;100.00
39075;BME280;24826;52.070;20.970;2023-02-02T02:04:18;61454.34;;;-147.04;100.00
39075;BME280;24826;52.070;20.970;2023-02-02T02:07:04;61484.16;;;-147.04;100.00
39075;BME280;24826;52.070;20.970;2023-02-02T02:09:49;61460.31;;;-147.04;100.00
39075;BME280;24826;52.070;20.970;2023-02-02T02:12:33;61472.22;;;-147.04;100.00
39075;BME280;24826;52.070;20.970;2023-02-02T02:15:19;61436.44;;;-147.04;100.00
39075;BME280;24826;52.070;20.970;2023-02-02T02:19:12;61482.19;;;-147.04;100.00
39075;BME280;24826;52.070;20.970;2023-02-02T02:22:04;61480.19;;;-147.04;100.00
39075;BME280;24826;52.070;20.970;2023-02-02T02:35:08;61456.31;;;-147.04;100.00
39075;BME280;24826;52.070;20.970;2023-02-02T02:38:03;61468.25;;;-147.04;100.00
39075;BME280;24826;52.070;20.970;2023-02-02T02:41:20;61436.44;;;-147.04;100.00
39075;BME280;24826;52.070;20.970;2023-02-02T02:44:08;61470.25;;;-147.04;100.00
39075;BME280;24826;52.070;20.970;2023-02-02T02:46:53;61468.25;;;-147.04;100.00
39075;BME280;24826;52.070;20.970;2023-02-02T02:49:45;61468.25;;;-147.04;100.00
39075;BME280;24826;52.070;20.970;2023-02-02T02:52:31;61444.41;;;-147.04;100.00
39075;BME280;24826;52.070;20.970;2023-02-02T02:55:16;61490.13;;;-147.04;100.00
39075;BME280;24826;52.070;20.970;2023-02-02T02:58:06;61448.38;;;-147.04;100.00
39075;BME280;24826;52.070;20.970;2023-02-02T03:03:45;61440.41;;;-147.04;100.00
39075;BME280;24826;52.070;20.970;2023-02-02T03:06:43;61426.50;;;-147.04;100.00
39075;BME280;24826;52.070;20.970;2023-02-02T03:09:34;61448.38;;;-147.04;100.00
39075;BME280;24826;52.070;20.970;2023-02-02T03:12:20;61470.25;;;-147.04;100.00
39075;BME280;24826;52.070;20.970;2023-02-02T03:15:05;61476.22;;;-147.04;100.00
39075;BME280;24826;52.070;20.970;2023-02-02T03:17:50;61462.28;;;-147.04;100.00
39075;BME280;24826;52.070;20.970;2023-02-02T03:20:35;61450.34;;;-147.04;100.00
39075;BME280;24826;52.070;20.970;2023-02-02T03:23:20;61428.47;;;-147.04;100.00
39075;BME280;24826;52.070;20.970;2023-02-02T03:26:05;61452.34;;;-147.04;100.00
39075;BME280;24826;52.070;20.970;2023-02-02T03:28:50;61605.47;;;-147.04;100.00
39075;BME280;24826;52.070;20.970;2023-02-02T03:31:34;61456.31;;;-147.04;100.00
39075;BME280;24826;52.070;20.970;2023-02-02T03:34:19;61438.44;;;-147.04;100.00
39075;BME280;24826;52.070;20.970;2023-02-02T03:37:03;61460.31;;;-147.04;100.00
39075;BME280;24826;52.070;20.970;2023-02-02T03:39:48;61434.44;;;-147.04;100.00
39075;BME280;24826;52.070;20.970;2023-02-02T03:42:32;61430.47;;;-147.04;100.00
39075;BME280;24826;52.070;20.970;2023-02-02T03:45:16;61444.41;;;-147.04;100.00
39075;BME280;24826;52.070;20.970;2023-02-02T03:48:04;61484.16;;;-147.04;100.00
39075;BME280;24826;52.070;20.970;2023-02-02T03:50:49;61448.38;;;-147.04;100.00
39075;BME280;24826;52.070;20.970;2023-02-02T03:53:33;61444.41;;;-147.04;100.00
39075;BME280;24826;52.070;20.970;2023-02-02T03:56:17;61440.41;;;-147.04;100.00
39075;BME280;24826;52.070;20.970;2023-02-02T03:59:02;61446.38;;;-147.04;100.00
39075;BME280;24826;52.070;20.970;2023-02-02T04:01:47;61484.16;;;-147.04;100.00
39075;BME280;24826;52.070;20.970;2023-02-02T04:04:31;61438.44;;;-147.04;100.00
39075;BME280;24826;52.070;20.970;2023-02-02T04:07:16;61426.50;;;-147.04;100.00
39075;BME280;24826;52.070;20.970;2023-02-02T04:10:00;61490.13;;;-147.04;100.00
39075;BME280;24826;52.070;20.970;2023-02-02T04:12:45;61510.00;;;-147.04;100.00
39075;BME280;24826;52.070;20.970;2023-02-02T04:15:29;61442.41;;;-147.04;100.00
39075;BME280;24826;52.070;20.970;2023-02-02T04:18:13;61454.34;;;-147.04;100.00
39075;BME280;24826;52.070;20.970;2023-02-02T04:20:59;61438.44;;;-147.04;100.00
39075;BME280;24826;52.070;20.970;2023-02-02T04:23:43;61434.44;;;-147.04;100.00
39075;BME280;24826;52.070;20.970;2023-02-02T04:26:28;61468.25;;;-147.04;100.00
39075;BME280;24826;52.070;20.970;2023-02-02T04:29:13;61438.44;;;-147.04;100.00
39075;BME280;24826;52.070;20.970;2023-02-02T04:31:57;61456.31;;;-147.04;100.00
39075;BME280;24826;52.070;20.970;2023-02-02T04:34:42;61456.31;;;-147.04;100.00
39075;BME280;24826;52.070;20.970;2023-02-02T04:37:29;61436.44;;;-147.04;100.00
39075;BME280;24826;52.070;20.970;2023-02-02T04:40:14;61458.31;;;-147.04;100.00
39075;BME280;24826;52.070;20.970;2023-02-02T04:42:59;61448.38;;;-147.04;100.00
39075;BME280;24826;52.070;20.970;2023-02-02T04:45:43;61460.31;;;-147.04;100.00
39075;BME280;24826;52.070;20.970;2023-02-02T04:48:28;61452.34;;;-147.04;100.00
39075;BME280;24826;52.070;20.970;2023-02-02T04:51:13;61472.22;;;-147.04;100.00
39075;BME280;24826;52.070;20.970;2023-02-02T04:53:58;61440.41;;;-147.04;100.00
39075;BME280;24826;52.070;20.970;2023-02-02T04:56:42;61456.31;;;-147.04;100.00
39075;BME280;24826;52.070;20.970;2023-02-02T04:59:27;61468.25;;;-147.04;100.00
39075;BME280;24826;52.070;20.970;2023-02-02T05:02:13;61446.38;;;-147.04;100.00
39075;BME280;24826;52.070;20.970;2023-02-02T05:04:57;61452.34;;;-147.04;100.00
39075;BME280;24826;52.070;20.970;2023-02-02T05:07:42;61432.47;;;-147.04;100.00
39075;BME280;24826;52.070;20.970;2023-02-02T05:10:26;61514.00;;;-147.04;100.00
39075;BME280;24826;52.070;20.970;2023-02-02T05:13:11;61460.31;;;-147.04;100.00
39075;BME280;24826;52.070;20.970;2023-02-02T05:15:55;61450.34;;;-147.04;100.00
39075;BME280;24826;52.070;20.970;2023-02-02T05:18:41;61450.34;;;-147.04;100.00
39075;BME280;24826;52.070;20.970;2023-02-02T05:21:25;61484.16;;;-147.04;100.00
39075;BME280;24826;52.070;20.970;2023-02-02T05:24:11;61460.31;;;-147.04;100.00
39075;BME280;24826;52.070;20.970;2023-02-02T05:26:55;61448.38;;;-147.04;100.00
39075;BME280;24826;52.070;20.970;2023-02-02T05:29:43;61458.31;;;-147.04;100.00
39075;BME280;24826;52.070;20.970;2023-02-02T05:32:29;61452.34;;;-147.04;100.00
39075;BME280;24826;52.070;20.970;2023-02-02T05:35:13;61460.31;;;-147.04;100.00
39075;BME280;24826;52.070;20.970;2023-02-02T05:37:57;61456.31;;;-147.04;100.00
39075;BME280;24826;52.070;20.970;2023-02-02T05:40:42;61484.16;;;-147.04;100.00
39075;BME280;24826;52.070;20.970;2023-02-02T05:43:28;61472.22;;;-147.04;100.00
39075;BME280;24826;52.070;20.970;2023-02-02T05:46:13;61384.75;;;-147.04;100.00
39075;BME280;24826;52.070;20.970;2023-02-02T05:48:57;61436.44;;;-147.04;100.00
39075;BME280;24826;52.070;20.970;2023-02-02T05:51:51;61462.28;;;-147.04;100.00
39075;BME280;24826;52.070;20.970;2023-02-02T05:54:36;61454.34;;;-147.04;100.00
39075;BME280;24826;52.070;20.970;2023-02-02T05:57:20;61500.06;;;-147.04;100.00
39075;BME280;24826;52.070;20.970;2023-02-02T06:00:05;61420.53;;;-147.04;100.00
39075;BME280;24826;52.070;20.970;2023-02-02T06:02:50;61442.41;;;-147.04;100.00
39075;BME280;24826;52.070;20.970;2023-02-02T06:05:34;61452.34;;;-147.04;100.00
39075;BME280;24826;52.070;20.970;2023-02-02T06:08:18;61480.19;;;-147.04;100.00
39075;BME280;24826;52.070;20.970;2023-02-02T06:11:13;61468.25;;;-147.04;100.00
39075;BME280;24826;52.070;20.970;2023-02-02T06:13:59;61418.53;;;-147.04;100.00
39075;BME280;24826;52.070;20.970;2023-02-02T06:16:43;61446.38;;;-147.04;100.00
39075;BME280;24826;52.070;20.970;2023-02-02T06:19:27;61460.31;;;-147.04;100.00
39075;BME280;24826;52.070;20.970;2023-02-02T06:22:11;61444.41;;;-147.04;100.00
39075;BME280;24826;52.070;20.970;2023-02-02T06:24:56;61464.28;;;-147.04;100.00
39075;BME280;24826;52.070;20.970;2023-02-02T06:27:41;61478.19;;;-147.04;100.00
39075;BME280;24826;52.070;20.970;2023-02-02T06:30:28;61464.28;;;-147.04;100.00
39075;BME280;24826;52.070;20.970;2023-02-02T06:33:12;61456.31;;;-147.04;100.00
39075;BME280;24826;52.070;20.970;2023-02-02T06:36:01;61446.38;;;-147.04;100.00
39075;BME280;24826;52.070;20.970;2023-02-02T06:38:49;61468.25;;;-147.04;100.00
39075;BME280;24826;52.070;20.970;2023-02-02T06:41:34;61486.16;;;-147.04;100.00
39075;BME280;24826;52.070;20.970;2023-02-02T06:44:18;61468.25;;;-147.04;100.00
39075;BME280;24826;52.070;20.970;2023-02-02T06:47:04;61460.31;;;-147.04;100.00
39075;BME280;24826;52.070;20.970;2023-02-02T06:49:48;61432.47;;;-147.04;100.00
39075;BME280;24826;52.070;20.970;2023-02-02T06:52:32;61472.22;;;-147.04;100.00
39075;BME280;24826;52.070;20.970;2023-02-02T06:55:17;61462.28;;;-147.04;100.00
39075;BME280;24826;52.070;20.970;2023-02-02T06:58:01;61480.19;;;-147.04;100.00
39075;BME280;24826;52.070;20.970;2023-02-02T07:00:46;61476.22;;;-147.04;100.00
39075;BME280;24826;52.070;20.970;2023-02-02T07:03:32;61460.31;;;-147.04;100.00
39075;BME280;24826;52.070;20.970;2023-02-02T07:06:22;61468.25;;;-147.04;100.00
39075;BME280;24826;52.070;20.970;2023-02-02T07:09:07;61460.31;;;-147.04;100.00
39075;BME280;24826;52.070;20.970;2023-02-02T07:11:50;61488.13;;;-147.04;100.00
39075;BME280;24826;52.070;20.970;2023-02-02T07:14:35;61460.31;;;-147.04;100.00
39075;BME280;24826;52.070;20.970;2023-02-02T07:17:19;61476.22;;;-147.04;100.00
39075;BME280;24826;52.070;20.970;2023-02-02T07:20:04;61448.38;;;-147.04;100.00
39075;BME280;24826;52.070;20.970;2023-02-02T07:22:49;61458.31;;;-147.04;100.00
39075;BME280;24826;52.070;20.970;2023-02-02T07:25:33;61470.25;;;-147.04;100.00
39075;BME280;24826;52.070;20.970;2023-02-02T07:28:17;61460.31;;;-147.04;100.00
39075;BME280;24826;52.070;20.970;2023-02-02T07:31:17;61468.25;;;-147.04;100.00
39075;BME280;24826;52.070;20.970;2023-02-02T07:34:02;61500.06;;;-147.04;100.00
39075;BME280;24826;52.070;20.970;2023-02-02T07:36:47;61452.34;;;-147.04;100.00
39075;BME280;24826;52.070;20.970;2023-02-02T07:39:31;61472.22;;;-147.04;100.00
39075;BME280;24826;52.070;20.970;2023-02-02T07:42:16;61448.38;;;-147.04;100.00
39075;BME280;24826;52.070;20.970;2023-02-02T07:45:00;61452.34;;;-147.04;100.00
39075;BME280;24826;52.070;20.970;2023-02-02T07:47:45;61474.22;;;-147.04;100.00
39075;BME280;24826;52.070;20.970;2023-02-02T07:50:30;61460.31;;;-147.04;100.00
39075;BME280;24826;52.070;20.970;2023-02-02T07:53:15;61484.16;;;-147.04;100.00
39075;BME280;24826;52.070;20.970;2023-02-02T07:56:13;61444.41;;;-147.04;100.00
39075;BME280;24826;52.070;20.970;2023-02-02T07:58:59;61448.38;;;-147.04;100.00
39075;BME280;24826;52.070;20.970;2023-02-02T08:01:42;61504.03;;;-147.04;100.00
39075;BME280;24826;52.070;20.970;2023-02-02T08:04:27;61448.38;;;-147.04;100.00
39075;BME280;24826;52.070;20.970;2023-02-02T08:07:11;61490.13;;;-147.04;100.00
39075;BME280;24826;52.070;20.970;2023-02-02T08:09:56;61468.25;;;-147.04;100.00
39075;BME280;24826;52.070;20.970;2023-02-02T08:12:40;61442.41;;;-147.04;100.00
39075;BME280;24826;52.070;20.970;2023-02-02T08:15:24;61486.16;;;-147.04;100.00
39075;BME280;24826;52.070;20.970;2023-02-02T08:18:09;61484.16;;;-147.04;100.00
39075;BME280;24826;52.070;20.970;2023-02-02T08:20:57;61442.41;;;-147.04;100.00
39075;BME280;24826;52.070;20.970;2023-02-02T08:23:41;61468.25;;;-147.04;100.00
39075;BME280;24826;52.070;20.970;2023-02-02T08:26:28;61468.25;;;-147.04;100.00
39075;BME280;24826;52.070;20.970;2023-02-02T08:29:12;61472.22;;;-147.04;100.00
39075;BME280;24826;52.070;20.970;2023-02-02T08:32:00;61492.13;;;-147.04;100.00
39075;BME280;24826;52.070;20.970;2023-02-02T08:34:47;61476.22;;;-147.04;100.00
39075;BME280;24826;52.070;20.970;2023-02-02T08:37:31;61462.28;;;-147.04;100.00
39075;BME280;24826;52.070;20.970;2023-02-02T08:40:16;61480.19;;;-147.04;100.00
39075;BME280;24826;52.070;20.970;2023-02-02T08:43:01;61470.25;;;-147.04;100.00
39075;BME280;24826;52.070;20.970;2023-02-02T08:45:46;61454.34;;;-147.04;100.00
39075;BME280;24826;52.070;20.970;2023-02-02T08:48:32;61468.25;;;-147.04;100.00
39075;BME280;24826;52.070;20.970;2023-02-02T08:51:18;61456.31;;;-147.04;100.00
39075;BME280;24826;52.070;20.970;2023-02-02T08:54:03;61464.28;;;-147.04;100.00
39075;BME280;24826;52.070;20.970;2023-02-02T08:56:47;61484.16;;;-147.04;100.00
39075;BME280;24826;52.070;20.970;2023-02-02T08:59:32;61468.25;;;-147.04;100.00
39075;BME280;24826;52.070;20.970;2023-02-02T09:02:15;61448.38;;;-147.04;100.00
39075;BME280;24826;52.070;20.970;2023-02-02T09:05:00;61456.31;;;-147.04;100.00
39075;BME280;24826;52.070;20.970;2023-02-02T09:07:45;61482.19;;;-147.04;100.00
39075;BME280;24826;52.070;20.970;2023-02-02T09:10:29;61474.22;;;-147.04;100.00
39075;BME280;24826;52.070;20.970;2023-02-02T09:13:14;61535.88;;;-147.04;100.00
39075;BME280;24826;52.070;20.970;2023-02-02T09:16:04;61506.03;;;-147.04;100.00
39075;BME280;24826;52.070;20.970;2023-02-02T09:18:48;61512.00;;;-147.04;100.00
39075;BME280;24826;52.070;20.970;2023-02-02T09:21:33;61496.09;;;-147.04;100.00
39075;BME280;24826;52.070;20.970;2023-02-02T09:24:20;61496.09;;;-147.04;100.00
39075;BME280;24826;52.070;20.970;2023-02-02T09:27:05;61531.88;;;-147.04;100.00
39075;BME280;24826;52.070;20.970;2023-02-02T09:29:49;61500.06;;;-147.04;100.00
39075;BME280;24826;52.070;20.970;2023-02-02T09:32:35;61480.19;;;-147.04;100.00
39075;BME280;24826;52.070;20.970;2023-02-02T09:35:19;61448.38;;;-147.04;100.00
39075;BME280;24826;52.070;20.970;2023-02-02T09:38:04;61480.19;;;-147.04;100.00
39075;BME280;24826;52.070;20.970;2023-02-02T09:40:48;61480.19;;;-147.04;100.00
39075;BME280;24826;52.070;20.970;2023-02-02T09:43:45;61512.00;;;-147.04;100.00
39075;BME280;24826;52.070;20.970;2023-02-02T09:49:36;61494.09;;;-147.04;100.00
39075;BME280;24826;52.070;20.970;2023-02-02T09:52:28;61533.88;;;-147.04;100.00
39075;BME280;24826;52.070;20.970;2023-02-02T09:55:36;61460.31;;;-147.04;100.00
39075;BME280;24826;52.070;20.970;2023-02-02T09:58:30;61480.19;;;-147.04;100.00
39075;BME280;24826;52.070;20.970;2023-02-02T10:07:12;61468.25;;;-147.04;100.00
39075;BME280;24826;52.070;20.970;2023-02-02T10:10:04;61492.13;;;-147.04;100.00
39075;BME280;24826;52.070;20.970;2023-02-02T10:12:55;61486.16;;;-147.04;100.00
39075;BME280;24826;52.070;20.970;2023-02-02T10:16:02;61474.22;;;-147.04;100.00
39075;BME280;24826;52.070;20.970;2023-02-02T10:18:55;61454.34;;;-147.04;100.00
39075;BME280;24826;52.070;20.970;2023-02-02T10:22:03;61472.22;;;-147.04;100.00
39075;BME280;24826;52.070;20.970;2023-02-02T10:24:50;61484.16;;;-147.04;100.00
39075;BME280;24826;52.070;20.970;2023-02-02T10:27:39;61492.13;;;-147.04;100.00
39075;BME280;24826;52.070;20.970;2023-02-02T10:30:44;61498.09;;;-147.04;100.00
39075;BME280;24826;52.070;20.970;2023-02-02T10:33:38;61514.00;;;-147.04;100.00
39075;BME280;24826;52.070;20.970;2023-02-02T10:46:24;61517.97;;;-147.04;100.00
39075;BME280;24826;52.070;20.970;2023-02-02T10:49:21;61486.16;;;-147.04;100.00
39075;BME280;24826;52.070;20.970;2023-02-02T10:55:05;61515.97;;;-147.04;100.00
39075;BME280;24826;52.070;20.970;2023-02-02T11:00:57;61551.78;;;-147.04;100.00
39075;BME280;24826;52.070;20.970;2023-02-02T11:03:44;61510.00;;;-147.04;100.00
39075;BME280;24826;52.070;20.970;2023-02-02T11:06:29;61527.91;;;-147.04;100.00
39075;BME280;24826;52.070;20.970;2023-02-02T11:09:38;61557.75;;;-147.04;100.00
39075;BME280;24826;52.070;20.970;2023-02-02T11:12:34;61539.84;;;-147.04;100.00
39075;BME280;24826;52.070;20.970;2023-02-02T11:15:24;61545.81;;;-147.04;100.00
39075;BME280;24826;52.070;20.970;2023-02-02T11:18:28;61472.22;;;-147.04;100.00
39075;BME280;24826;52.070;20.970;2023-02-02T11:21:29;61541.81;;;-147.04;100.00
39075;BME280;24826;52.070;20.970;2023-02-02T11:24:22;61508.03;;;-147.04;100.00
39075;BME280;24826;52.070;20.970;2023-02-02T11:33:32;61523.94;;;-147.04;100.00
39075;BME280;24826;52.070;20.970;2023-02-02T11:36:20;61472.22;;;-147.04;100.00
39075;BME280;24826;52.070;20.970;2023-02-02T11:39:20;61527.91;;;-147.04;100.00
39075;BME280;24826;52.070;20.970;2023-02-02T11:42:19;61508.03;;;-147.04;100.00
39075;BME280;24826;52.070;20.970;2023-02-02T11:45:05;61514.00;;;-147.04;100.00
39075;BME280;24826;52.070;20.970;2023-02-02T11:47:50;61519.94;;;-147.04;100.00
39075;BME280;24826;52.070;20.970;2023-02-02T11:50:34;61464.28;;;-147.04;100.00
39075;BME280;24826;52.070;20.970;2023-02-02T11:53:29;61517.97;;;-147.04;100.00
39075;BME280;24826;52.070;20.970;2023-02-02T11:56:19;61512.00;;;-147.04;100.00
39075;BME280;24826;52.070;20.970;2023-02-02T11:59:46;61492.13;;;-147.04;100.00
39075;BME280;24826;52.070;20.970;2023-02-02T12:02:30;61476.22;;;-147.04;100.00
39075;BME280;24826;52.070;20.970;2023-02-02T12:08:03;61472.22;;;-147.04;100.00
39075;BME280;24826;52.070;20.970;2023-02-02T12:11:00;61438.44;;;-147.04;100.00
39075;BME280;24826;52.070;20.970;2023-02-02T12:17:11;61454.34;;;-147.04;100.00
39075;BME280;24826;52.070;20.970;2023-02-02T12:23:41;61454.34;;;-147.04;100.00
39075;BME280;24826;52.070;20.970;2023-02-02T12:26:30;61474.22;;;-147.04;100.00
39075;BME280;24826;52.070;20.970;2023-02-02T12:29:27;61438.44;;;-147.04;100.00
39075;BME280;24826;52.070;20.970;2023-02-02T12:57:01;61450.34;;;-147.04;100.00
39075;BME280;24826;52.070;20.970;2023-02-02T13:00:08;61476.22;;;-147.04;100.00
39075;BME280;24826;52.070;20.970;2023-02-02T13:09:08;61514.00;;;-147.04;100.00
39075;BME280;24826;52.070;20.970;2023-02-02T13:12:08;61535.88;;;-147.04;100.00
39075;BME280;24826;52.070;20.970;2023-02-02T13:14:55;61519.94;;;-147.04;100.00
39075;BME280;24826;52.070;20.970;2023-02-02T13:17:53;61474.22;;;-147.04;100.00
39075;BME280;24826;52.070;20.970;2023-02-02T13:20:49;61539.84;;;-147.04;100.00
39075;BME280;24826;52.070;20.970;2023-02-02T13:23:45;61504.03;;;-147.04;100.00
39075;BME280;24826;52.070;20.970;2023-02-02T13:26:35;61484.16;;;-147.04;100.00
39075;BME280;24826;52.070;20.970;2023-02-02T13:29:34;61486.16;;;-147.04;100.00
39075;BME280;24826;52.070;20.970;2023-02-02T13:32:23;61517.97;;;-147.04;100.00
39075;BME280;24826;52.070;20.970;2023-02-02T13:35:30;61482.19;;;-147.04;100.00
39075;BME280;24826;52.070;20.970;2023-02-02T13:38:22;61450.34;;;-147.04;100.00
39075;BME280;24826;52.070;20.970;2023-02-02T13:41:09;61523.94;;;-147.04;100.00
39075;BME280;24826;52.070;20.970;2023-02-02T13:44:05;61490.13;;;-147.04;100.00
39075;BME280;24826;52.070;20.970;2023-02-02T13:47:00;61512.00;;;-147.04;100.00
39075;BME280;24826;52.070;20.970;2023-02-02T13:49:52;61527.91;;;-147.04;100.00
39075;BME280;24826;52.070;20.970;2023-02-02T14:02:22;61472.22;;;-147.04;100.00
39075;BME280;24826;52.070;20.970;2023-02-02T14:05:32;61472.22;;;-147.04;100.00
39075;BME280;24826;52.070;20.970;2023-02-02T14:08:20;61442.41;;;-147.04;100.00
39075;BME280;24826;52.070;20.970;2023-02-02T14:11:06;61468.25;;;-147.04;100.00
39075;BME280;24826;52.070;20.970;2023-02-02T14:14:36;61446.38;;;-147.04;100.00
39075;BME280;24826;52.070;20.970;2023-02-02T14:23:52;61484.16;;;-147.04;100.00
39075;BME280;24826;52.070;20.970;2023-02-02T14:38:13;61444.41;;;-147.04;100.00
39075;BME280;24826;52.070;20.970;2023-02-02T14:41:14;61418.53;;;-147.04;100.00
39075;BME280;24826;52.070;20.970;2023-02-02T14:44:22;61450.34;;;-147.04;100.00
39075;BME280;24826;52.070;20.970;2023-02-02T14:53:38;61470.25;;;-147.04;100.00
39075;BME280;24826;52.070;20.970;2023-02-02T14:59:30;61458.31;;;-147.04;100.00
39075;BME280;24826;52.070;20.970;2023-02-02T15:02:30;61468.25;;;-147.04;100.00
39075;BME280;24826;52.070;20.970;2023-02-02T15:11:06;61436.44;;;-147.04;100.00
39075;BME280;24826;52.070;20.970;2023-02-02T15:14:14;61460.31;;;-147.04;100.00
39075;BME280;24826;52.070;20.970;2023-02-02T15:20:52;61468.25;;;-147.04;99.40
39075;BME280;24826;52.070;20.970;2023-02-02T15:23:42;61430.47;;;-147.04;99.19
39075;BME280;24826;52.070;20.970;2023-02-02T15:26:33;61519.94;;;-147.04;98.87
39075;BME280;24826;52.070;20.970;2023-02-02T15:29:28;61446.38;;;-147.04;98.96
39075;BME280;24826;52.070;20.970;2023-02-02T15:32:21;61472.22;;;-147.04;99.54
39075;BME280;24826;52.070;20.970;2023-02-02T15:35:17;61420.53;;;-147.04;100.00
39075;BME280;24826;52.070;20.970;2023-02-02T15:38:05;61448.38;;;-147.04;100.00
39075;BME280;24826;52.070;20.970;2023-02-02T15:40:51;61476.22;;;-147.04;99.75
39075;BME280;24826;52.070;20.970;2023-02-02T15:43:35;61468.25;;;-147.04;99.66
39075;BME280;24826;52.070;20.970;2023-02-02T15:46:28;61464.28;;;-147.04;100.00
39075;BME280;24826;52.070;20.970;2023-02-02T15:52:29;61494.09;;;-147.04;100.00
39075;BME280;24826;52.070;20.970;2023-02-02T15:55:51;61464.28;;;-147.04;100.00
39075;BME280;24826;52.070;20.970;2023-02-02T15:58:31;61466.25;;;-147.04;100.00
39075;BME280;24826;52.070;20.970;2023-02-02T16:01:18;61462.28;;;-147.04;100.00
39075;BME280;24826;52.070;20.970;2023-02-02T16:06:54;61424.50;;;-147.04;100.00
39075;BME280;24826;52.070;20.970;2023-02-02T16:09:39;61470.25;;;-147.04;100.00
39075;BME280;24826;52.070;20.970;2023-02-02T16:12:25;61462.28;;;-147.04;100.00
39075;BME280;24826;52.070;20.970;2023-02-02T16:15:20;61492.13;;;-147.04;100.00
39075;BME280;24826;52.070;20.970;2023-02-02T16:18:12;61488.13;;;-147.04;100.00
39075;BME280;24826;52.070;20.970;2023-02-02T16:21:03;61452.34;;;-147.04;100.00
39075;BME280;24826;52.070;20.970;2023-02-02T16:23:50;61452.34;;;-147.04;100.00
39075;BME280;24826;52.070;20.970;2023-02-02T16:26:35;61450.34;;;-147.04;99.48
39075;BME280;24826;52.070;20.970;2023-02-02T16:29:20;61446.38;;;-147.04;98.55